Time;durP1;ratioP1;P1;durP2;ratioP2;P2;SDS_P1;SDS_P2;PMS_P1;PMS_P2;Temp;Humidity;BMP_temperature;BMP_pressure;BME280_temperature;BME280_humidity;BME280_pressure;Samples;Min_cycle;Max_cycle;Signal;HPM_P1;HPM_P2
2023/09/29 00:01:12;;;;;;;17.00;5.47;;;;;;;15.82;100.00;101490.75;5050944;28;20036;-55
2023/09/29 00:03:39;;;;;;;15.90;5.28;;;;;;;15.81;100.00;101486.41;5052259;28;20016;-56
2023/09/29 00:06:04;;;;;;;18.60;5.65;;;;;;;15.82;100.00;101480.03;5051868;28;20021;-53
2023/09/29 00:08:30;;;;;;;14.75;4.85;;;;;;;15.83;100.00;101481.75;5052009;28;20067;-55
2023/09/29 00:10:55;;;;;;;13.68;5.13;;;;;;;15.81;100.00;101484.56;5051860;28;20537;-55
2023/09/29 00:13:20;;;;;;;16.95;5.13;;;;;;;15.82;100.00;101490.75;5051572;28;20036;-56
2023/09/29 00:15:48;;;;;;;13.68;5.28;;;;;;;15.80;100.00;101477.50;5051844;28;20025;-55
2023/09/29 00:18:15;;;;;;;13.93;5.53;;;;;;;15.81;100.00;101481.88;5050576;28;20037;-53
2023/09/29 00:20:40;;;;;;;11.18;4.82;;;;;;;15.83;100.00;101476.38;5051097;28;20064;-54
2023/09/29 00:23:06;;;;;;;13.75;5.07;;;;;;;15.81;100.00;101481.03;5049369;28;20064;-56
2023/09/29 00:25:31;;;;;;;12.68;5.00;;;;;;;15.83;100.00;101487.94;5051527;28;20471;-54
2023/09/29 00:27:57;;;;;;;14.18;5.25;;;;;;;15.85;100.00;101479.78;5050847;28;20099;-55
2023/09/29 00:30:23;;;;;;;10.77;4.93;;;;;;;15.87;100.00;101483.16;5051626;28;20391;-53
2023/09/29 00:32:50;;;;;;;13.82;5.20;;;;;;;15.85;100.00;101482.44;5051265;28;20394;-53
2023/09/29 00:35:27;;;;;;;13.43;4.80;;;;;;;15.87;100.00;101472.44;5044964;28;20021;-53
2023/09/29 00:37:58;;;;;;;16.52;5.63;;;;;;;15.89;100.00;101481.22;5050136;28;20029;-53
2023/09/29 00:40:23;;;;;;;15.63;5.20;;;;;;;15.89;100.00;101481.22;5050540;28;20158;-56
2023/09/29 00:42:49;;;;;;;10.10;4.80;;;;;;;15.91;100.00;101473.88;5051495;28;20127;-55
2023/09/29 00:45:22;;;;;;;10.20;4.50;;;;;;;15.90;100.00;101478.41;5048165;28;20028;-55
2023/09/29 00:47:50;;;;;;;13.48;4.90;;;;;;;15.91;100.00;101471.19;5050816;28;20029;-54
2023/09/29 00:50:19;;;;;;;11.90;5.27;;;;;;;15.94;100.00;101468.25;5051593;28;20032;-56
2023/09/29 00:52:46;;;;;;;11.07;5.45;;;;;;;15.94;100.00;101457.53;5051290;28;20017;-54
2023/09/29 00:55:15;;;;;;;9.15;4.50;;;;;;;15.96;100.00;101460.06;5051870;28;20025;-54
2023/09/29 00:57:41;;;;;;;;;;;;;;;16.02;100.00;101459.50;5050270;28;20112;-53
2023/09/29 01:02:47;;;;;;;11.10;4.60;;;;;;;16.00;100.00;101465.00;5047403;28;20121;-53
2023/09/29 01:05:12;;;;;;;9.90;4.72;;;;;;;16.01;100.00;101464.03;5051171;28;20063;-53
2023/09/29 01:07:41;;;;;;;9.98;4.50;;;;;;;16.01;100.00;101450.63;5050570;28;20040;-53
2023/09/29 01:10:06;;;;;;;13.50;4.57;;;;;;;16.01;100.00;101447.94;5051704;28;20121;-55
2023/09/29 01:12:34;;;;;;;11.13;4.57;;;;;;;16.00;100.00;101451.59;5054426;28;20068;-54
2023/09/29 01:14:59;;;;;;;14.77;4.50;;;;;;;16.01;100.00;101447.94;5055685;28;20067;-54
2023/09/29 01:17:25;;;;;;;7.85;4.28;;;;;;;16.02;100.00;101443.41;5054377;28;20028;-55
2023/09/29 01:19:51;;;;;;;10.43;4.82;;;;;;;16.03;100.00;101439.78;5055630;28;20032;-53
2023/09/29 01:22:17;;;;;;;10.20;4.70;;;;;;;16.04;100.00;101438.78;5055236;28;20024;-53
2023/09/29 01:24:44;;;;;;;8.48;3.75;;;;;;;16.04;100.00;101438.78;5054817;28;20025;-53
2023/09/29 01:27:09;;;;;;;10.25;3.92;;;;;;;16.06;100.00;101439.50;5055410;28;20033;-54
2023/09/29 01:29:35;;;;;;;9.07;3.78;;;;;;;16.05;100.00;101435.97;5055247;28;20066;-54
2023/09/29 01:32:01;;;;;;;9.07;4.07;;;;;;;16.06;100.00;101434.97;5054211;28;20380;-53
2023/09/29 01:34:31;;;;;;;10.93;4.82;;;;;;;16.05;100.00;101433.31;5053103;28;20063;-53
2023/09/29 01:36:57;;;;;;;9.43;4.13;;;;;;;16.05;100.00;101419.91;5055094;28;20107;-56
2023/09/29 01:39:22;;;;;;;8.85;4.20;;;;;;;16.06;100.00;101418.06;5055138;28;20107;-53
2023/09/29 01:41:48;;;;;;;9.25;5.10;;;;;;;16.11;100.00;101406.94;5054849;28;20539;-56
2023/09/29 01:44:14;;;;;;;7.38;4.45;;;;;;;16.09;100.00;101404.38;5054635;28;20045;-54
2023/09/29 01:46:40;;;;;;;7.93;3.70;;;;;;;16.11;100.00;101418.47;5051100;28;20107;-54
2023/09/29 01:49:06;;;;;;;9.45;3.80;;;;;;;16.12;100.00;101414.84;5053853;28;20103;-54
2023/09/29 01:51:31;;;;;;;8.80;4.20;;;;;;;16.12;100.00;101411.28;5055039;28;20479;-53
2023/09/29 01:53:57;;;;;;;7.28;3.58;;;;;;;16.12;100.00;101401.44;5053963;28;20152;-55
2023/09/29 01:56:23;;;;;;;7.85;3.70;;;;;;;16.12;100.00;101405.91;5054592;28;20027;-54
2023/09/29 01:58:49;;;;;;;8.95;3.88;;;;;;;16.13;100.00;101399.59;5054422;28;20029;-55
2023/09/29 02:01:14;;;;;;;7.53;3.70;;;;;;;16.14;100.00;101403.94;5054574;28;20459;-55
2023/09/29 02:03:41;;;;;;;8.43;3.90;;;;;;;16.13;100.00;101396.91;5053060;28;20032;-54
2023/09/29 02:06:06;;;;;;;6.25;3.30;;;;;;;16.13;100.00;101396.91;5054134;28;20375;-52
2023/09/29 02:08:32;;;;;;;7.10;3.65;;;;;;;16.13;100.00;101403.09;5054339;28;20021;-56
2023/09/29 02:10:57;;;;;;;7.25;3.47;;;;;;;16.14;100.00;101388.72;5053646;28;20064;-53
2023/09/29 02:13:22;;;;;;;8.98;3.55;;;;;;;16.14;100.00;101388.72;5054494;28;20531;-56
2023/09/29 02:15:48;;;;;;;8.02;4.00;;;;;;;16.15;100.00;101406.47;5051848;28;20045;-53
2023/09/29 02:18:13;;;;;;;10.13;3.90;;;;;;;16.14;100.00;101404.81;5054191;28;20571;-54
2023/09/29 02:20:46;;;;;;;7.43;3.40;;;;;;;16.14;100.00;101398.59;5052739;28;20036;-55
2023/09/29 02:23:13;;;;;;;5.70;3.17;;;;;;;16.14;100.00;101391.41;5053067;28;20028;-54
2023/09/29 02:25:38;;;;;;;7.03;3.20;;;;;;;16.13;100.00;101386.19;5053799;28;20048;-56
2023/09/29 02:28:04;;;;;;;4.38;3.13;;;;;;;16.13;100.00;101388.88;5052282;28;20494;-56
2023/09/29 02:30:29;;;;;;;6.82;3.30;;;;;;;16.14;100.00;101385.19;5054037;28;20467;-54
2023/09/29 02:32:55;;;;;;;8.48;3.20;;;;;;;16.13;100.00;101386.19;5053274;28;20037;-56
2023/09/29 02:35:21;;;;;;;5.63;3.08;;;;;;;16.14;100.00;101383.38;5053942;28;20032;-54
2023/09/29 02:37:47;;;;;;;5.80;3.20;;;;;;;16.14;100.00;101369.09;5052348;28;20040;-56
2023/09/29 02:40:14;;;;;;;8.68;3.30;;;;;;;16.15;100.00;101368.13;5053930;28;20039;-53
2023/09/29 02:42:42;;;;;;;6.05;3.15;;;;;;;16.12;100.00;101357.69;5053765;28;20068;-55
2023/09/29 02:45:08;;;;;;;9.13;3.17;;;;;;;16.14;100.00;101356.56;5052577;28;20032;-56
2023/09/29 02:47:35;;;;;;;6.95;3.50;;;;;;;16.14;100.00;101345.84;5053589;28;20092;-56
2023/09/29 02:50:00;;;;;;;5.95;3.25;;;;;;;16.16;100.00;101351.91;5052732;28;20468;-56
2023/09/29 02:52:29;;;;;;;5.78;2.72;;;;;;;16.16;100.00;101351.06;5052302;28;20017;-56
2023/09/29 02:54:55;;;;;;;5.90;2.75;;;;;;;16.16;100.00;101348.41;5052923;28;20059;-56
2023/09/29 02:57:21;;;;;;;5.82;3.15;;;;;;;16.21;100.00;101343.44;5052588;28;20029;-54
2023/09/29 02:59:47;;;;;;;4.70;3.08;;;;;;;16.21;100.00;101336.25;5053706;28;20494;-55
2023/09/29 03:02:12;;;;;;;6.20;3.30;;;;;;;16.22;100.00;101335.28;5053289;28;20025;-56
2023/09/29 03:04:39;;;;;;;5.72;3.10;;;;;;;16.23;100.00;101328.06;5052788;28;20060;-55
2023/09/29 03:07:05;;;;;;;5.78;3.15;;;;;;;16.23;100.00;101336.09;5053505;28;20049;-55
2023/09/29 03:09:33;;;;;;;6.00;3.03;;;;;;;16.24;100.00;101329.78;5052574;28;20055;-56
2023/09/29 03:12:00;;;;;;;4.75;2.60;;;;;;;16.22;100.00;101327.22;5051789;28;20025;-56
2023/09/29 03:14:25;;;;;;;6.45;2.88;;;;;;;16.25;100.00;101339.47;5050478;28;20487;-54
2023/09/29 03:16:50;;;;;;;6.75;3.00;;;;;;;16.26;100.00;101344.69;5065035;28;20083;-53
2023/09/29 03:19:17;;;;;;;4.35;2.88;;;;;;;16.24;100.00;101335.13;5052991;28;20074;-56
2023/09/29 03:21:42;;;;;;;7.38;3.20;;;;;;;16.26;100.00;101333.16;5052291;28;20493;-56
2023/09/29 03:24:08;;;;;;;6.10;2.75;;;;;;;16.26;100.00;101323.25;5051825;28;20033;-56
2023/09/29 03:26:34;;;;;;;6.20;2.75;;;;;;;16.26;100.00;101327.78;5053033;28;20437;-56
2023/09/29 03:28:59;;;;;;;6.65;3.05;;;;;;;16.27;100.00;101319.59;5051990;28;20055;-53
2023/09/29 03:31:26;;;;;;;7.97;3.40;;;;;;;16.25;100.00;101316.22;5052811;28;20064;-55
2023/09/29 03:33:52;;;;;;;7.22;3.13;;;;;;;16.29;100.00;101311.44;5050706;28;20379;-54
2023/09/29 03:36:20;;;;;;;9.00;3.00;;;;;;;16.28;100.00;101304.34;5052002;28;20017;-53
2023/09/29 03:38:46;;;;;;;5.88;2.60;;;;;;;16.31;100.00;101297.88;5048494;28;20025;-55
2023/09/29 03:41:11;;;;;;;5.28;3.22;;;;;;;16.31;100.00;101297.88;5052554;28;20025;-56
2023/09/29 03:43:37;;;;;;;5.93;3.22;;;;;;;16.31;100.00;101287.16;5052832;28;20438;-56
2023/09/29 03:46:04;;;;;;;4.00;2.83;;;;;;;16.31;100.00;101281.78;5051497;28;20067;-53
2023/09/29 03:48:29;;;;;;;9.45;2.97;;;;;;;16.32;100.00;101283.47;5052632;28;20028;-54
2023/09/29 03:50:55;;;;;;;7.03;3.17;;;;;;;16.33;100.00;101277.97;5052732;28;20364;-55
2023/09/29 03:53:21;;;;;;;5.80;2.60;;;;;;;16.31;100.00;101282.63;5052719;28;20025;-53
2023/09/29 03:55:46;;;;;;;5.18;2.88;;;;;;;16.32;100.00;101281.66;5050508;28;20067;-53
2023/09/29 03:58:14;;;;;;;5.70;2.83;;;;;;;16.31;100.00;101279.94;5052235;28;20056;-55
2023/09/29 04:00:39;;;;;;;8.55;3.17;;;;;;;16.28;100.00;101267.66;5052745;28;20471;-53
2023/09/29 04:03:04;;;;;;;5.47;3.00;;;;;;;16.33;100.00;101277.13;5051614;28;20055;-56
2023/09/29 04:05:30;;;;;;;5.13;2.80;;;;;;;16.33;100.00;101269.91;5050078;28;20108;-55
2023/09/29 04:07:55;;;;;;;5.18;2.97;;;;;;;16.33;100.00;101267.25;5051415;28;20040;-53
2023/09/29 04:10:20;;;;;;;4.03;2.70;;;;;;;16.34;100.00;101260.06;5052036;28;20387;-56
2023/09/29 04:12:46;;;;;;;4.22;2.90;;;;;;;16.32;100.00;101260.22;5052587;28;20056;-54
2023/09/29 04:15:12;;;;;;;5.47;2.80;;;;;;;16.36;100.00;101263.44;5051813;28;20051;-54
2023/09/29 04:17:38;;;;;;;6.20;3.10;;;;;;;16.35;100.00;101273.28;5050909;28;20029;-53
2023/09/29 04:20:05;;;;;;;5.90;3.28;;;;;;;16.36;100.00;101277.69;5052228;28;20093;-56
2023/09/29 04:22:30;;;;;;;4.72;2.70;;;;;;;16.37;100.00;101267.78;5047759;28;20037;-55
2023/09/29 04:24:56;;;;;;;6.60;3.17;;;;;;;16.37;100.00;101263.28;5051194;28;20075;-56
2023/09/29 04:27:21;;;;;;;5.93;3.20;;;;;;;16.39;100.00;101255.13;5051841;28;20386;-54
2023/09/29 04:29:47;;;;;;;5.57;3.20;;;;;;;16.40;100.00;101249.59;5051761;28;20072;-56
2023/09/29 04:32:12;;;;;;;6.82;3.08;;;;;;;16.43;100.00;101243.09;5050958;28;20385;-56
2023/09/29 04:34:37;;;;;;;5.15;3.42;;;;;;;16.44;100.00;101251.00;5051837;28;20021;-55
2023/09/29 04:37:03;;;;;;;4.47;2.80;;;;;;;16.48;100.00;101256.06;5051637;28;20021;-57
2023/09/29 04:39:28;;;;;;;6.25;2.72;;;;;;;16.47;100.00;101249.88;5051375;28;20496;-55
2023/09/29 04:41:53;;;;;;;4.75;2.90;;;;;;;16.48;100.00;101251.53;5051601;28;20114;-56
2023/09/29 04:44:18;;;;;;;4.57;3.00;;;;;;;16.51;100.00;101245.88;5051089;28;20052;-54
2023/09/29 04:46:44;;;;;;;5.32;2.83;;;;;;;16.51;100.00;101240.53;5050524;28;20107;-56
2023/09/29 04:49:09;;;;;;;6.80;3.30;;;;;;;16.52;100.00;101246.72;5051183;28;20035;-55
2023/09/29 04:51:36;;;;;;;5.00;3.20;;;;;;;16.54;100.00;101252.81;5049817;28;20147;-56
2023/09/29 04:54:02;;;;;;;5.25;3.40;;;;;;;16.54;100.00;101250.13;5051007;28;20029;-56
2023/09/29 04:56:27;;;;;;;4.38;3.15;;;;;;;16.55;100.00;101260.69;5051163;28;20348;-56
2023/09/29 04:58:53;;;;;;;7.38;3.10;;;;;;;16.57;100.00;101256.03;5051127;28;20058;-56
2023/09/29 05:01:18;;;;;;;5.60;2.75;;;;;;;16.57;100.00;101245.31;5050929;28;20509;-56
2023/09/29 05:03:47;;;;;;;6.00;3.00;;;;;;;16.58;100.00;101246.16;5051105;28;20090;-56
2023/09/29 05:06:13;;;;;;;7.63;2.97;;;;;;;16.62;100.00;101255.56;5050109;28;20039;-54
2023/09/29 05:08:39;;;;;;;6.05;2.50;;;;;;;16.63;100.00;101243.88;5051243;28;20021;-52
2023/09/29 05:11:04;;;;;;;5.88;3.10;;;;;;;16.65;100.00;101247.22;5051277;28;20063;-53
2023/09/29 05:13:32;;;;;;;3.45;2.50;;;;;;;16.67;100.00;101237.22;5051350;28;20501;-53
2023/09/29 05:15:58;;;;;;;7.25;2.80;;;;;;;16.68;100.00;101236.22;5050391;28;20098;-55
2023/09/29 05:18:23;;;;;;;6.00;2.90;;;;;;;16.69;100.00;101232.56;5051513;28;20033;-55
2023/09/29 05:20:49;;;;;;;5.93;2.83;;;;;;;16.70;100.00;101234.22;5050112;28;20024;-55
2023/09/29 05:23:14;;;;;;;6.18;2.92;;;;;;;16.72;100.00;101226.91;5050596;28;20087;-54
2023/09/29 05:25:47;;;;;;;6.47;2.80;;;;;;;16.71;100.00;101230.56;5050479;28;20017;-53
2023/09/29 05:28:13;;;;;;;3.83;2.67;;;;;;;16.76;100.00;101222.91;5050836;28;20033;-56
2023/09/29 05:30:38;;;;;;;5.45;3.00;;;;;;;16.79;100.00;101227.16;5050855;28;20025;-53
2023/09/29 05:33:04;;;;;;;5.47;2.63;;;;;;;16.76;100.00;101224.75;5049947;28;20028;-56
2023/09/29 05:35:30;;;;;;;9.20;2.75;;;;;;;16.79;100.00;101219.09;5050657;28;20025;-53
2023/09/29 05:37:55;;;;;;;4.78;2.95;;;;;;;16.80;100.00;101223.44;5048324;28;20383;-55
2023/09/29 05:40:21;;;;;;;6.45;2.92;;;;;;;16.79;100.00;101222.63;5046853;28;20036;-53
2023/09/29 05:42:47;;;;;;;7.25;2.70;;;;;;;16.83;100.00;101225.84;5047104;28;20056;-53
2023/09/29 05:45:12;;;;;;;4.05;2.72;;;;;;;16.84;100.00;101219.50;5044717;28;20040;-54
2023/09/29 05:47:37;;;;;;;4.10;3.05;;;;;;;16.86;100.00;101224.75;5045774;28;20033;-54
2023/09/29 05:50:03;;;;;;;4.28;2.80;;;;;;;16.87;100.00;101226.41;5046882;28;20033;-54
2023/09/29 05:52:29;;;;;;;5.65;2.95;;;;;;;16.86;100.00;101227.44;5047866;28;20039;-56
2023/09/29 05:54:54;;;;;;;3.97;2.58;;;;;;;16.90;100.00;101231.50;5046846;28;20032;-55
2023/09/29 05:57:20;;;;;;;4.50;2.85;;;;;;;16.89;100.00;101236.03;5040467;28;20017;-53
2023/09/29 05:59:45;;;;;;;5.22;2.53;;;;;;;16.91;100.00;101231.34;5054409;28;20025;-55
2023/09/29 06:02:11;;;;;;;4.32;2.65;;;;;;;16.94;100.00;101224.84;5054388;28;20021;-55
2023/09/29 06:04:36;;;;;;;5.28;2.92;;;;;;;16.95;100.00;101232.75;5048326;28;20125;-54
2023/09/29 06:07:02;;;;;;;4.43;3.03;;;;;;;16.96;100.00;101228.22;5050492;28;20037;-54
2023/09/29 06:09:28;;;;;;;8.45;2.78;;;;;;;16.98;100.00;101229.72;5047218;28;20374;-55
2023/09/29 06:11:53;;;;;;;3.20;2.47;;;;;;;16.98;100.00;101243.16;5045504;28;20060;-55
2023/09/29 06:14:18;;;;;;;5.63;2.50;;;;;;;17.01;100.00;101248.22;5048302;28;20108;-55
2023/09/29 06:16:43;;;;;;;3.95;2.58;;;;;;;17.05;100.00;101245.25;5048623;28;20029;-54
2023/09/29 06:19:09;;;;;;;4.20;2.75;;;;;;;17.10;100.00;101251.00;5048225;28;20098;-55
2023/09/29 06:21:35;;;;;;;3.20;2.28;;;;;;;17.13;100.00;101246.19;5047669;28;20032;-54
2023/09/29 06:24:00;;;;;;;6.22;2.92;;;;;;;17.16;100.00;101248.56;5048876;28;20032;-53
2023/09/29 06:26:26;;;;;;;4.63;2.50;;;;;;;17.20;100.00;101239.22;5049557;28;20017;-56
2023/09/29 06:28:51;;;;;;;5.63;2.20;;;;;;;17.22;100.00;101228.34;5049360;28;20040;-56
2023/09/29 06:31:17;;;;;;;7.00;2.63;;;;;;;17.25;100.00;101233.38;5051002;28;20041;-56
2023/09/29 06:33:42;;;;;;;3.97;2.38;;;;;;;17.28;100.00;101230.41;5049980;28;20025;-56
2023/09/29 06:36:07;;;;;;;6.75;2.67;;;;;;;17.34;100.00;101237.84;5051998;28;20033;-55
2023/09/29 06:38:33;;;;;;;6.35;2.63;;;;;;;17.40;100.00;101244.44;5046200;28;20029;-56
2023/09/29 06:40:58;;;;;;;4.55;2.67;;;;;;;17.43;100.00;101240.63;5047421;28;20020;-56
2023/09/29 06:43:24;;;;;;;4.03;2.50;;;;;;;17.45;100.00;101244.81;5048479;28;20049;-56
2023/09/29 06:45:49;;;;;;;3.67;2.50;;;;;;;17.52;100.00;101253.13;5048978;28;20474;-57
2023/09/29 06:48:15;;;;;;;4.78;2.30;;;;;;;17.55;100.00;101259.06;5048999;28;20116;-55
2023/09/29 06:50:40;;;;;;;5.18;2.72;;;;;;;17.56;100.00;101249.13;5050100;28;20025;-54
2023/09/29 06:53:06;;;;;;;4.70;2.70;;;;;;;17.61;100.00;101251.38;5048329;28;20063;-57
2023/09/29 06:55:31;;;;;;;4.75;2.75;;;;;;;17.62;100.00;101250.34;5049475;28;20052;-57
2023/09/29 06:57:58;;;;;;;5.13;2.55;;;;;;;17.65;100.00;101250.91;5053491;28;20075;-53
2023/09/29 07:00:24;;;;;;;6.43;2.92;;;;;;;17.69;100.00;101254.13;5049403;28;20052;-55
2023/09/29 07:02:49;;;;;;;6.30;2.60;;;;;;;17.73;100.00;101253.66;5050630;28;20119;-56
2023/09/29 07:05:15;;;;;;;3.90;2.65;;;;;;;17.77;100.00;101262.28;5050441;28;20024;-58
2023/09/29 07:07:41;;;;;;;7.32;2.47;;;;;;;17.78;100.00;101261.25;5052390;28;20024;-54
2023/09/29 07:10:07;;;;;;;5.68;2.65;;;;;;;17.81;100.00;101268.19;5047807;28;20580;-51
2023/09/29 07:12:32;;;;;;;4.20;2.58;;;;;;;17.83;100.00;101258.94;5047601;28;20067;-50
2023/09/29 07:14:58;;;;;;;4.75;2.35;;;;;;;17.89;100.00;101263.75;5051158;28;20056;-51
2023/09/29 07:17:23;;;;;;;6.18;2.92;;;;;;;17.93;100.00;101259.72;5050669;28;20094;-52
2023/09/29 07:19:48;;;;;;;4.72;2.63;;;;;;;17.97;100.00;101254.91;5048648;28;20049;-50
2023/09/29 07:22:14;;;;;;;5.18;2.63;;;;;;;18.00;100.00;101254.59;5052489;28;20036;-50
2023/09/29 07:24:41;;;;;;;3.05;2.22;;;;;;;18.04;100.00;101261.34;5050662;28;20029;-50
2023/09/29 07:27:08;;;;;;;4.88;2.88;;;;;;;18.13;100.00;101275.69;5048358;28;20021;-50
2023/09/29 07:29:34;;;;;;;4.88;2.47;;;;;;;18.16;100.00;101272.69;5045432;28;20035;-51
2023/09/29 07:31:59;;;;;;;4.95;2.47;;;;;;;18.24;100.00;101263.84;5047265;28;20029;-50
2023/09/29 07:34:27;;;;;;;6.55;2.65;;;;;;;18.34;100.00;101269.13;5048695;28;20017;-50
2023/09/29 07:36:53;;;;;;;5.82;3.10;;;;;;;18.42;100.00;101266.47;5047287;28;20029;-50
2023/09/29 07:39:19;;;;;;;6.85;2.78;;;;;;;18.53;100.00;101271.56;5048358;28;20387;-52
2023/09/29 07:41:44;;;;;;;8.13;2.70;;;;;;;18.64;100.00;101274.00;5044242;28;20036;-52
2023/09/29 07:44:09;;;;;;;7.45;3.00;;;;;;;18.74;100.00;101271.19;5051616;28;20044;-56
2023/09/29 07:46:35;;;;;;;5.05;2.70;;;;;;;18.85;100.00;101273.63;5046227;28;20413;-55
2023/09/29 07:49:02;;;;;;;4.25;2.80;;;;;;;18.97;100.00;101274.19;5047360;28;20037;-54
2023/09/29 07:51:28;;;;;;;6.07;2.50;;;;;;;19.08;100.00;101277.59;5048311;28;20023;-54
2023/09/29 07:53:53;;;;;;;6.25;2.58;;;;;;;19.17;100.00;101274.75;5046794;28;20021;-55
2023/09/29 07:56:18;;;;;;;3.17;2.38;;;;;;;19.27;100.00;101288.09;5049634;28;20037;-54
2023/09/29 07:58:43;;;;;;;4.18;2.28;;;;;;;19.39;100.00;101281.38;5044613;28;20017;-51
2023/09/29 08:01:09;;;;;;;4.53;2.38;;;;;;;19.48;100.00;101284.09;5043577;28;20432;-55
2023/09/29 08:03:34;;;;;;;6.57;3.17;;;;;;;19.59;100.00;101286.47;5043739;28;20029;-52
2023/09/29 08:06:00;;;;;;;5.03;2.10;;;;;;;19.71;100.00;101287.00;5050374;28;20025;-55
2023/09/29 08:08:25;;;;;;;4.55;2.40;;;;;;;19.81;100.00;101286.88;5046940;28;20029;-54
2023/09/29 08:10:52;;;;;;;4.68;2.38;;;;;;;19.89;100.00;101295.78;5047651;28;20119;-55
2023/09/29 08:13:18;;;;;;;7.65;2.50;;;;;;;19.98;100.00;101296.63;5051238;28;20036;-55
2023/09/29 08:15:44;;;;;;;7.22;2.40;;;;;;;20.10;100.00;101292.59;5045671;28;20028;-53
2023/09/29 08:18:09;;;;;;;5.38;2.28;;;;;;;20.20;100.00;101305.06;5051315;28;20033;-55
2023/09/29 08:20:35;;;;;;;5.15;2.40;;;;;;;20.27;99.40;101306.91;5051324;28;20033;-54
2023/09/29 08:23:00;;;;;;;4.57;2.38;;;;;;;20.38;99.26;101319.19;5048259;28;20059;-56
2023/09/29 08:25:26;;;;;;;5.80;2.30;;;;;;;20.50;99.29;101319.69;5047386;28;20068;-54
2023/09/29 08:27:51;;;;;;;6.00;3.00;;;;;;;20.49;97.35;101323.41;5047129;28;20170;-55
2023/09/29 08:30:17;;;;;;;6.10;2.60;;;;;;;20.63;97.24;101329.97;5051250;28;20021;-56
2023/09/29 08:32:43;;;;;;;5.00;2.38;;;;;;;20.68;95.63;101327.59;5050031;28;20040;-56
2023/09/29 08:35:13;;;;;;;3.55;2.40;;;;;;;20.73;97.12;101325.22;5049627;28;20029;-55
2023/09/29 08:37:41;;;;;;;4.90;2.45;;;;;;;20.78;95.71;101332.81;5055295;28;20020;-56
2023/09/29 08:40:11;;;;;;;6.68;2.72;;;;;;;20.79;95.51;101335.34;5047408;28;20029;-54
2023/09/29 08:42:38;;;;;;;4.70;2.38;;;;;;;20.80;94.17;101336.19;5046892;28;20055;-53
2023/09/29 08:45:12;;;;;;;4.55;2.47;;;;;;;20.83;95.80;101343.94;5051824;28;20471;-56
2023/09/29 08:47:40;;;;;;;4.75;2.53;;;;;;;20.81;94.65;101341.41;5049256;28;20027;-56
2023/09/29 08:50:08;;;;;;;9.38;2.67;;;;;;;20.83;94.24;101343.94;5046959;28;20386;-53
2023/09/29 08:52:35;;;;;;;6.65;3.25;;;;;;;20.87;94.81;101354.22;5049988;28;20090;-53
2023/09/29 08:55:02;;;;;;;3.40;2.53;;;;;;;20.92;93.82;101351.00;5051661;28;20045;-54
2023/09/29 08:57:28;;;;;;;6.03;2.60;;;;;;;20.97;93.89;101355.91;5049747;28;20016;-55
2023/09/29 08:59:54;;;;;;;7.72;2.72;;;;;;;21.00;93.62;101348.28;5052343;28;20506;-53
2023/09/29 09:02:19;;;;;;;3.40;2.35;;;;;;;21.04;92.04;101352.31;5051556;28;20047;-54
2023/09/29 09:04:45;;;;;;;8.18;3.00;;;;;;;21.09;92.35;101351.78;5051989;28;20064;-56
2023/09/29 09:07:11;;;;;;;5.50;2.65;;;;;;;21.09;91.96;101350.97;5050852;28;20021;-57
2023/09/29 09:09:37;;;;;;;6.93;2.92;;;;;;;21.13;91.65;101355.81;5045877;28;20070;-56
2023/09/29 09:12:03;;;;;;;4.85;2.88;;;;;;;21.14;91.49;101362.91;5050833;28;20029;-52
2023/09/29 09:14:41;;;;;;;6.30;2.80;;;;;;;21.19;92.43;101363.22;5050755;28;20032;-52
2023/09/29 09:17:10;;;;;;;6.07;2.85;;;;;;;21.16;91.06;101365.44;5050516;28;20022;-52
2023/09/29 09:19:50;;;;;;;6.55;2.65;;;;;;;21.17;92.23;101367.97;5050834;28;20028;-54
2023/09/29 09:22:18;;;;;;;5.35;2.40;;;;;;;21.09;92.17;101359.91;5051159;28;20029;-57
2023/09/29 09:24:43;;;;;;;7.72;2.65;;;;;;;21.07;92.16;101370.88;5049844;28;20021;-57
2023/09/29 09:27:09;;;;;;;5.40;2.80;;;;;;;21.04;92.38;101382.00;5050738;28;20124;-54
2023/09/29 09:29:41;;;;;;;7.57;2.95;;;;;;;21.01;92.13;101376.13;5051011;28;20022;-55
2023/09/29 09:32:07;;;;;;;5.68;2.75;;;;;;;21.01;92.30;101381.53;5051042;28;20469;-56
2023/09/29 09:34:35;;;;;;;7.28;2.55;;;;;;;20.97;92.17;101378.34;5054209;28;20025;-55
2023/09/29 09:37:00;;;;;;;6.88;2.88;;;;;;;20.96;91.77;101378.50;5055153;28;20033;-56
2023/09/29 09:39:28;;;;;;;5.47;2.53;;;;;;;20.95;92.78;101379.50;5055071;28;20376;-57
2023/09/29 09:41:56;;;;;;;8.63;2.77;;;;;;;21.01;92.79;101392.31;5054727;28;20463;-56
2023/09/29 09:44:23;;;;;;;4.30;2.37;;;;;;;21.02;92.59;101391.31;5053029;28;20097;-57
2023/09/29 09:47:00;;;;;;;6.72;3.00;;;;;;;20.96;92.02;101390.13;5053325;28;20566;-54
2023/09/29 09:50:00;;;;;;;7.20;2.33;;;;;;;20.97;92.26;101399.94;5052616;28;20013;-53
2023/09/29 09:52:30;;;;;;;5.55;2.67;;;;;;;20.96;93.24;101402.81;5032593;28;20067;-55
2023/09/29 09:54:58;;;;;;;6.40;2.45;;;;;;;20.94;93.02;101400.28;5054034;28;20025;-52
2023/09/29 09:57:34;;;;;;;6.50;2.20;;;;;;;20.93;92.67;101406.69;5050978;28;20087;-51
2023/09/29 10:00:10;;;;;;;7.15;2.85;;;;;;;20.94;93.20;101404.84;5024175;28;20037;-54
2023/09/29 10:02:39;;;;;;;4.95;2.63;;;;;;;20.97;93.10;101412.59;5049541;28;20032;-55
2023/09/29 10:05:22;;;;;;;8.23;3.28;;;;;;;20.99;93.42;101408.69;5053472;28;20106;-52
2023/09/29 10:08:01;;;;;;;5.57;2.63;;;;;;;20.98;93.33;101415.09;5051643;28;20031;-53
2023/09/29 10:10:32;;;;;;;6.38;2.80;;;;;;;20.93;93.55;101413.94;5051867;28;20025;-53
2023/09/29 10:12:58;;;;;;;4.85;2.58;;;;;;;20.93;93.11;101422.88;5054362;28;20471;-54
2023/09/29 10:15:29;;;;;;;6.40;2.67;;;;;;;20.93;93.13;101420.19;5053574;28;20025;-52
2023/09/29 10:17:58;;;;;;;6.57;2.55;;;;;;;20.93;92.56;101419.34;5051225;28;20443;-55
2023/09/29 10:20:24;;;;;;;;;;;;;;;21.06;93.56;101422.34;5054800;28;20028;-52
2023/09/29 10:22:54;;;;;;;6.30;2.80;;;;;;;20.95;92.99;101414.59;5046038;28;20677;-53
2023/09/29 10:25:24;;;;;;;5.07;2.90;;;;;;;20.93;94.51;101414.78;5045650;28;20054;-55
2023/09/29 10:27:59;;;;;;;5.72;2.53;;;;;;;21.00;93.49;101423.03;5043063;28;20040;-55
2023/09/29 10:30:26;;;;;;;5.35;2.67;;;;;;;21.00;93.41;101428.44;5051022;28;20078;-53
2023/09/29 10:33:05;;;;;;;7.43;2.90;;;;;;;20.96;92.61;101424.41;5042290;28;20056;-54
2023/09/29 10:35:31;;;;;;;;;;;;;;;21.08;93.57;101423.03;5051481;28;20441;-53
2023/09/29 10:37:58;;;;;;;6.28;2.70;;;;;;;20.97;92.19;101432.34;5050800;28;19966;-52
2023/09/29 10:40:27;;;;;;;6.50;2.50;;;;;;;20.96;92.58;101432.50;5043500;28;20030;-52
2023/09/29 10:42:54;;;;;;;8.60;2.90;;;;;;;21.01;93.06;101430.97;5042906;28;20049;-54
2023/09/29 10:45:31;;;;;;;7.95;3.22;;;;;;;21.01;93.36;101438.25;5045302;28;20021;-55
2023/09/29 10:48:01;;;;;;;6.28;2.65;;;;;;;21.02;93.08;101443.47;5046527;28;20048;-55
2023/09/29 10:50:26;;;;;;;5.47;2.42;;;;;;;20.97;94.30;101436.91;5051729;28;20398;-53
2023/09/29 10:52:52;;;;;;;6.35;2.35;;;;;;;21.01;92.87;101439.06;5048958;28;20022;-52
2023/09/29 10:55:18;;;;;;;4.88;2.65;;;;;;;20.99;93.12;101440.28;5052308;28;20090;-55
2023/09/29 10:57:43;;;;;;;5.50;3.20;;;;;;;21.00;92.16;101456.31;5052063;28;20037;-52
2023/09/29 11:00:09;;;;;;;6.10;2.75;;;;;;;20.97;93.07;101459.34;5049297;28;20540;-52
2023/09/29 11:02:36;;;;;;;5.22;2.40;;;;;;;21.01;94.02;101451.75;5037680;28;20032;-52
2023/09/29 11:05:04;;;;;;;6.75;2.78;;;;;;;21.15;94.95;101455.59;5045715;28;20028;-51
2023/09/29 11:07:30;;;;;;;4.20;2.28;;;;;;;21.23;93.85;101459.13;5042841;28;20031;-54
2023/09/29 11:09:59;;;;;;;4.40;2.20;;;;;;;21.29;93.93;101460.28;5044372;28;20127;-52
2023/09/29 11:12:27;;;;;;;4.05;2.20;;;;;;;21.33;92.69;101456.22;5048831;28;20104;-53
2023/09/29 11:14:53;;;;;;;4.55;2.10;;;;;;;21.41;92.69;101458.06;5052624;28;20033;-54
2023/09/29 11:17:18;;;;;;;3.53;2.03;;;;;;;21.45;92.32;101472.91;5052116;28;20025;-54
2023/09/29 11:19:54;;;;;;;3.00;1.90;;;;;;;21.46;92.04;101466.47;5052454;28;20052;-55